createdAt,value
2022-11-28T00:01:05.249Z,5.67
2022-11-28T00:03:31.929Z,5.71
2022-11-28T00:06:07.318Z,5.70
2022-11-28T00:08:34.654Z,5.70
2022-11-28T00:11:08.436Z,5.70
2022-11-28T00:13:36.236Z,5.66
2022-11-28T00:16:04.811Z,5.64
2022-11-28T00:18:32.153Z,5.68
2022-11-28T00:21:07.857Z,5.71
2022-11-28T00:23:35.049Z,5.70
2022-11-28T00:26:10.410Z,5.70
2022-11-28T00:28:37.564Z,5.66
2022-11-28T00:31:04.833Z,5.66
2022-11-28T00:33:32.982Z,5.63
2022-11-28T00:36:04.501Z,5.62
2022-11-28T00:38:32.110Z,5.61
2022-11-28T00:41:03.693Z,5.61
2022-11-28T00:43:30.285Z,5.62
2022-11-28T00:45:57.037Z,5.62
2022-11-28T00:48:24.732Z,5.62
2022-11-28T00:50:52.256Z,5.67
2022-11-28T00:53:19.075Z,5.70
2022-11-28T00:55:45.824Z,5.67
2022-11-28T00:58:12.372Z,5.61
2022-11-28T01:00:39.322Z,5.63
2022-11-28T01:03:05.996Z,5.48
2022-11-28T01:05:32.521Z,5.49
2022-11-28T01:07:59.139Z,5.42
2022-11-28T01:10:27.097Z,5.33
2022-11-28T01:12:53.851Z,5.32
2022-11-28T01:15:20.425Z,5.32
2022-11-28T01:17:46.928Z,5.28
2022-11-28T01:20:13.810Z,5.24
2022-11-28T01:22:40.362Z,5.23
2022-11-28T01:25:07.329Z,5.27
2022-11-28T01:27:34.036Z,5.28
2022-11-28T01:30:00.576Z,5.30
2022-11-28T01:32:27.326Z,5.36
2022-11-28T01:34:53.822Z,5.35
2022-11-28T01:37:20.388Z,5.37
2022-11-28T01:39:46.987Z,5.34
2022-11-28T01:42:20.438Z,5.34
2022-11-28T01:44:49.971Z,5.37
2022-11-28T01:47:21.798Z,5.32
2022-11-28T01:49:50.424Z,5.34
2022-11-28T01:52:19.682Z,5.38
2022-11-28T01:54:53.442Z,5.46
2022-11-28T01:57:24.005Z,5.56
2022-11-28T02:00:07.845Z,5.52
2022-11-28T02:02:41.622Z,5.50
2022-11-28T02:05:08.901Z,5.46
2022-11-28T02:07:37.208Z,5.34
2022-11-28T02:10:07.645Z,5.35
2022-11-28T02:12:43.473Z,5.40
2022-11-28T02:15:18.856Z,5.42
2022-11-28T02:17:52.318Z,5.43
2022-11-28T02:20:49.128Z,5.46
2022-11-28T02:23:23.357Z,5.48
2022-11-28T02:25:58.811Z,5.48
2022-11-28T02:28:43.888Z,5.47
2022-11-28T02:31:25.588Z,5.50
2022-11-28T02:33:59.815Z,5.51
2022-11-28T02:36:26.314Z,5.49
2022-11-28T02:38:59.072Z,5.46
2022-11-28T02:41:31.757Z,5.27
2022-11-28T02:44:04.604Z,5.24
2022-11-28T02:46:56.485Z,5.27
2022-11-28T02:49:29.614Z,5.19
2022-11-28T02:52:00.737Z,5.05
2022-11-28T02:54:27.796Z,5.05
2022-11-28T02:56:55.317Z,5.04
2022-11-28T02:59:37.034Z,5.08
2022-11-28T03:02:12.461Z,5.10
2022-11-28T03:04:47.970Z,5.15
2022-11-28T03:07:17.229Z,5.11
2022-11-28T03:09:43.828Z,5.12
2022-11-28T03:12:24.947Z,5.11
2022-11-28T03:14:58.596Z,5.07
2022-11-28T03:17:31.070Z,5.10
2022-11-28T03:20:12.927Z,5.07
2022-11-28T03:23:01.791Z,5.12
2022-11-28T03:25:37.075Z,5.13
2022-11-28T03:28:15.464Z,5.13
2022-11-28T03:31:07.019Z,5.20
2022-11-28T03:33:38.047Z,5.21
2022-11-28T03:36:15.104Z,5.16
2022-11-28T03:38:48.965Z,5.14
2022-11-28T03:41:21.647Z,5.19
2022-11-28T03:43:54.102Z,5.17
2022-11-28T03:46:23.647Z,4.87
2022-11-28T03:48:55.471Z,4.88
2022-11-28T03:51:30.336Z,4.90
2022-11-28T03:54:20.054Z,4.91
2022-11-28T03:56:56.752Z,5.03
2022-11-28T03:59:33.487Z,5.02
2022-11-28T04:02:28.409Z,5.07
2022-11-28T04:05:13.313Z,5.13
2022-11-28T04:07:58.728Z,5.09
2022-11-28T04:10:36.359Z,5.07
2022-11-28T04:13:29.685Z,4.92
2022-11-28T04:16:03.146Z,5.01
2022-11-28T04:18:31.898Z,4.87
2022-11-28T04:21:11.944Z,4.88
2022-11-28T04:23:42.570Z,4.96
2022-11-28T04:26:17.826Z,5.07
2022-11-28T04:28:47.209Z,5.12
2022-11-28T04:31:17.958Z,5.16
2022-11-28T04:33:50.719Z,5.16
2022-11-28T04:36:20.462Z,5.21
2022-11-28T04:38:56.156Z,5.25
2022-11-28T04:41:33.511Z,5.30
2022-11-28T04:44:13.469Z,5.32
2022-11-28T04:46:44.559Z,5.33
2022-11-28T04:49:12.031Z,5.31
2022-11-28T04:52:13.169Z,5.18
2022-11-28T04:54:52.870Z,5.08
2022-11-28T04:57:26.559Z,5.04
2022-11-28T04:59:54.525Z,4.93
2022-11-28T05:02:22.597Z,4.94
2022-11-28T05:04:49.162Z,4.96
2022-11-28T05:07:15.683Z,4.98
2022-11-28T05:09:42.238Z,4.93
2022-11-28T05:12:08.802Z,4.90
2022-11-28T05:14:35.405Z,4.83
2022-11-28T05:17:01.913Z,4.88
2022-11-28T05:19:28.393Z,4.96
2022-11-28T05:21:54.897Z,5.02
2022-11-28T05:24:22.497Z,4.92
2022-11-28T05:26:49.385Z,4.97
2022-11-28T05:29:15.914Z,4.97
2022-11-28T05:31:42.558Z,4.98
2022-11-28T05:34:09.195Z,5.00
2022-11-28T05:36:35.729Z,4.95
2022-11-28T05:39:02.300Z,4.97
2022-11-28T05:41:31.393Z,5.02
2022-11-28T05:43:59.733Z,5.04
2022-11-28T05:46:27.525Z,5.07
2022-11-28T05:48:54.310Z,5.08
2022-11-28T05:51:20.929Z,5.07
2022-11-28T05:53:47.496Z,5.11
2022-11-28T05:56:17.830Z,5.08
2022-11-28T05:58:44.827Z,5.08
2022-11-28T06:01:26.082Z,5.08
2022-11-28T06:03:58.202Z,5.13
2022-11-28T06:06:26.136Z,5.05
2022-11-28T06:08:52.909Z,5.07
2022-11-28T06:11:21.109Z,5.04
2022-11-28T06:13:49.145Z,4.98
2022-11-28T06:16:21.591Z,4.92
2022-11-28T06:18:48.753Z,5.07
2022-11-28T06:21:16.172Z,5.08
2022-11-28T06:23:42.993Z,5.12
2022-11-28T06:26:13.234Z,5.16
2022-11-28T06:28:40.757Z,5.14
2022-11-28T06:31:19.329Z,5.21
2022-11-28T06:33:46.113Z,5.25
2022-11-28T06:36:14.210Z,5.23
2022-11-28T06:38:40.929Z,5.21
2022-11-28T06:41:10.744Z,5.25
2022-11-28T06:43:37.996Z,5.27
2022-11-28T06:46:04.863Z,5.34
2022-11-28T06:48:32.280Z,5.36
2022-11-28T06:51:02.994Z,5.39
2022-11-28T06:53:31.597Z,5.46
2022-11-28T06:55:58.650Z,5.48
2022-11-28T06:58:25.383Z,5.41
2022-11-28T07:00:51.999Z,5.39
2022-11-28T07:03:18.551Z,5.43
2022-11-28T07:05:45.103Z,5.44
2022-11-28T07:08:11.700Z,5.47
2022-11-28T07:10:38.545Z,5.54
2022-11-28T07:13:05.691Z,5.57
2022-11-28T07:15:32.327Z,5.64
2022-11-28T07:17:58.886Z,5.62
2022-11-28T07:20:25.365Z,5.70
2022-11-28T07:22:51.900Z,5.78
2022-11-28T07:25:18.616Z,5.91
2022-11-28T07:27:45.233Z,5.99
2022-11-28T07:30:11.943Z,6.03
2022-11-28T07:32:41.524Z,6.04
2022-11-28T07:35:09.026Z,6.17
2022-11-28T07:37:36.239Z,6.24
2022-11-28T07:40:04.116Z,6.11
2022-11-28T07:42:30.711Z,6.16
2022-11-28T07:44:57.361Z,6.22
2022-11-28T07:47:23.952Z,6.19
2022-11-28T07:49:50.608Z,6.21
2022-11-28T07:52:17.162Z,6.25
2022-11-28T07:54:43.716Z,6.24
2022-11-28T07:57:13.012Z,6.27
2022-11-28T07:59:40.239Z,6.18
2022-11-28T08:02:07.521Z,6.33
2022-11-28T08:04:34.679Z,6.36
2022-11-28T08:07:01.303Z,6.42
2022-11-28T08:09:28.200Z,6.45
2022-11-28T08:11:54.750Z,6.51
2022-11-28T08:14:21.335Z,6.54
2022-11-28T08:16:49.496Z,6.53
2022-11-28T08:19:16.388Z,6.47
2022-11-28T08:21:43.299Z,6.56
2022-11-28T08:24:11.204Z,6.60
2022-11-28T08:26:38.186Z,6.63
2022-11-28T08:29:04.787Z,6.74
2022-11-28T08:31:34.983Z,6.91
2022-11-28T08:34:05.173Z,6.91
2022-11-28T08:36:32.455Z,6.95
2022-11-28T08:39:22.300Z,6.98
2022-11-28T08:41:49.888Z,7.02
2022-11-28T08:44:16.524Z,7.04
2022-11-28T08:46:43.096Z,6.99
2022-11-28T08:49:09.666Z,7.09
2022-11-28T08:51:37.072Z,7.20
2022-11-28T08:54:03.558Z,7.31
2022-11-28T08:56:30.105Z,7.20
2022-11-28T08:58:56.636Z,7.19
2022-11-28T09:01:25.714Z,7.16
2022-11-28T09:03:54.087Z,7.03
2022-11-28T09:06:22.016Z,6.96
2022-11-28T09:08:49.806Z,6.84
2022-11-28T09:11:18.985Z,6.86
2022-11-28T09:13:46.004Z,6.98
2022-11-28T09:16:13.422Z,7.12
2022-11-28T09:18:39.972Z,7.16
2022-11-28T09:21:09.495Z,7.14
2022-11-28T09:23:37.491Z,7.11
2022-11-28T09:26:33.474Z,7.27
2022-11-28T09:29:00.328Z,7.26
2022-11-28T09:31:27.196Z,7.38
2022-11-28T09:33:54.124Z,7.42
2022-11-28T09:36:23.295Z,7.48
2022-11-28T09:38:50.050Z,7.65
2022-11-28T09:41:28.460Z,7.87
2022-11-28T09:44:18.238Z,8.04
2022-11-28T09:46:47.633Z,8.16
2022-11-28T09:49:40.352Z,8.13
2022-11-28T09:52:26.807Z,8.15
2022-11-28T09:55:03.787Z,8.06
2022-11-28T09:57:45.448Z,7.79
2022-11-28T10:00:20.321Z,7.75
2022-11-28T10:03:19.183Z,7.82
2022-11-28T10:05:56.152Z,7.97
2022-11-28T10:08:28.454Z,8.28
2022-11-28T10:11:01.976Z,8.70
2022-11-28T10:14:07.711Z,8.95
2022-11-28T10:16:46.862Z,9.31
2022-11-28T10:19:38.617Z,9.46
2022-11-28T10:22:11.627Z,9.60
2022-11-28T10:24:43.689Z,9.41
2022-11-28T10:27:13.752Z,9.14
2022-11-28T10:30:08.616Z,8.98
2022-11-28T10:32:40.711Z,9.14
2022-11-28T10:35:28.110Z,8.99
2022-11-28T10:37:55.349Z,8.95
2022-11-28T10:40:36.352Z,9.19
2022-11-28T10:43:11.103Z,9.38
2022-11-28T10:46:03.789Z,9.44
2022-11-28T10:48:40.594Z,9.25
2022-11-28T10:51:07.492Z,9.26
2022-11-28T10:53:59.262Z,9.18
2022-11-28T10:56:42.342Z,9.04
2022-11-28T10:59:17.781Z,8.68
2022-11-28T11:01:49.814Z,8.47
2022-11-28T11:04:22.670Z,8.45
2022-11-28T11:07:16.280Z,8.52
2022-11-28T11:09:46.211Z,8.58
2022-11-28T11:12:24.409Z,8.64
2022-11-28T11:14:50.912Z,8.71
2022-11-28T11:17:29.013Z,8.71
2022-11-28T11:20:00.136Z,8.72
2022-11-28T11:22:31.611Z,8.73
2022-11-28T11:25:14.620Z,8.74
2022-11-28T11:27:50.766Z,8.76
2022-11-28T11:30:43.452Z,8.82
2022-11-28T11:33:17.080Z,8.81
2022-11-28T11:35:48.001Z,8.70
2022-11-28T11:38:20.544Z,8.75
2022-11-28T11:40:48.887Z,8.53
2022-11-28T11:43:33.170Z,8.56
2022-11-28T11:46:11.361Z,8.52
2022-11-28T11:48:42.132Z,8.61
2022-11-28T11:51:32.728Z,8.57
2022-11-28T11:54:16.658Z,8.55
2022-11-28T11:56:46.688Z,8.48
2022-11-28T11:59:33.920Z,8.42
2022-11-28T12:02:19.615Z,8.41
2022-11-28T12:04:55.150Z,8.37
2022-11-28T12:07:29.740Z,8.39
2022-11-28T12:10:00.590Z,8.42
2022-11-28T12:12:33.577Z,8.24
2022-11-28T12:15:00.144Z,8.23
2022-11-28T12:17:48.309Z,8.22
2022-11-28T12:20:37.367Z,8.27
2022-11-28T12:23:34.891Z,8.22
2022-11-28T12:26:19.433Z,8.03
2022-11-28T12:28:51.754Z,8.01
2022-11-28T12:31:36.221Z,7.94
2022-11-28T12:34:23.009Z,7.99
2022-11-28T12:37:41.960Z,7.94
2022-11-28T12:40:15.740Z,7.94
2022-11-28T12:43:27.446Z,7.97
2022-11-28T12:46:23.179Z,8.15
2022-11-28T12:48:58.654Z,8.28
2022-11-28T12:51:37.058Z,8.18
2022-11-28T12:54:21.681Z,8.07
2022-11-28T12:57:03.451Z,8.10
2022-11-28T12:59:40.235Z,8.09
2022-11-28T13:02:44.037Z,8.04
2022-11-28T13:05:48.731Z,8.10
2022-11-28T13:08:36.818Z,8.04
2022-11-28T13:11:22.310Z,8.10
2022-11-28T13:13:52.721Z,8.04
2022-11-28T13:16:27.168Z,7.97
2022-11-28T13:19:11.639Z,7.82
2022-11-28T13:22:07.057Z,7.80
2022-11-28T13:24:51.818Z,7.85
2022-11-28T13:27:36.464Z,7.91
2022-11-28T13:30:14.841Z,8.02
2022-11-28T13:32:47.335Z,8.05
2022-11-28T13:35:16.523Z,7.90
2022-11-28T13:41:00.565Z,7.92
2022-11-28T13:43:57.983Z,8.01
2022-11-28T13:46:25.077Z,8.02
2022-11-28T13:49:13.892Z,7.94
2022-11-28T13:51:41.878Z,7.88
2022-11-28T13:54:18.029Z,7.84
2022-11-28T13:56:46.292Z,7.81
2022-11-28T13:59:21.530Z,7.81
2022-11-28T14:01:56.083Z,7.79
2022-11-28T14:04:23.089Z,7.78
2022-11-28T14:07:02.482Z,7.74
2022-11-28T14:09:57.985Z,7.64
2022-11-28T14:12:57.405Z,7.59
2022-11-28T14:15:44.880Z,7.60
2022-11-28T14:21:29.176Z,7.54
2022-11-28T14:24:27.669Z,7.54
2022-11-28T14:26:59.981Z,7.45
2022-11-28T14:29:48.602Z,7.47
2022-11-28T14:32:34.494Z,7.41
2022-11-28T14:35:02.062Z,7.28
2022-11-28T14:37:29.360Z,7.32
2022-11-28T14:39:56.921Z,7.32
2022-11-28T14:42:58.134Z,7.32
2022-11-28T14:45:42.175Z,7.33
2022-11-28T14:48:15.019Z,7.32
2022-11-28T14:50:41.654Z,7.29
2022-11-28T14:53:30.009Z,7.21
2022-11-28T14:56:10.333Z,7.14
2022-11-28T14:58:37.625Z,7.10
2022-11-28T15:01:11.612Z,7.13
2022-11-28T15:03:47.594Z,7.16
2022-11-28T15:06:20.837Z,7.16
2022-11-28T15:08:53.162Z,7.19
2022-11-28T15:11:34.969Z,7.21
2022-11-28T15:14:10.560Z,7.21
2022-11-28T15:16:49.836Z,7.24
2022-11-28T15:19:19.913Z,7.28
2022-11-28T15:21:48.021Z,7.21
2022-11-28T15:24:32.985Z,7.21
2022-11-28T15:27:24.085Z,7.19
2022-11-28T15:30:01.497Z,7.18
2022-11-28T15:32:30.899Z,7.24
2022-11-28T15:35:07.762Z,7.25
2022-11-28T15:37:37.585Z,7.19
2022-11-28T15:40:06.138Z,7.07
2022-11-28T15:42:35.896Z,7.01
2022-11-28T15:45:18.527Z,7.02
2022-11-28T15:47:46.695Z,7.00
2022-11-28T15:50:13.220Z,6.99
2022-11-28T15:52:39.979Z,6.97
2022-11-28T15:55:16.859Z,6.97
2022-11-28T15:57:43.391Z,6.92
2022-11-28T16:00:14.872Z,6.88
2022-11-28T16:02:42.853Z,6.85
2022-11-28T16:05:21.300Z,6.83
2022-11-28T16:07:51.122Z,6.79
2022-11-28T16:10:27.867Z,6.76
2022-11-28T16:13:03.758Z,6.61
2022-11-28T16:15:31.576Z,6.52
2022-11-28T16:17:58.509Z,6.47
2022-11-28T16:20:28.435Z,6.48
2022-11-28T16:22:59.757Z,6.39
2022-11-28T16:25:27.283Z,6.32
2022-11-28T16:27:57.307Z,6.26
2022-11-28T16:30:29.942Z,6.15
2022-11-28T16:32:57.221Z,6.08
2022-11-28T16:35:38.910Z,5.95
2022-11-28T16:38:27.026Z,5.89
2022-11-28T16:41:01.148Z,5.91
2022-11-28T16:43:41.097Z,5.90
2022-11-28T16:46:18.320Z,5.91
2022-11-28T16:48:49.694Z,5.90
2022-11-28T16:51:22.409Z,5.85
2022-11-28T16:53:50.297Z,5.79
2022-11-28T16:56:41.442Z,5.79
2022-11-28T16:59:07.928Z,5.78
2022-11-28T17:01:35.693Z,5.76
2022-11-28T17:04:02.745Z,5.78
2022-11-28T17:06:36.901Z,5.76
2022-11-28T17:09:09.003Z,5.77
2022-11-28T17:11:37.877Z,5.74
2022-11-28T17:14:10.173Z,5.74
2022-11-28T17:16:41.481Z,5.77
2022-11-28T17:19:08.326Z,5.78
2022-11-28T17:21:39.198Z,5.78
2022-11-28T17:24:11.939Z,5.74
2022-11-28T17:26:38.508Z,5.77
2022-11-28T17:29:05.071Z,5.68
2022-11-28T17:31:31.673Z,5.66
2022-11-28T17:33:58.211Z,5.57
2022-11-28T17:36:24.718Z,5.61
2022-11-28T17:38:51.399Z,5.51
2022-11-28T17:41:20.329Z,5.48
2022-11-28T17:43:46.877Z,5.48
2022-11-28T17:46:13.394Z,5.43
2022-11-28T17:48:39.965Z,5.44
2022-11-28T17:51:06.576Z,5.48
2022-11-28T17:53:33.175Z,5.48
2022-11-28T17:56:00.017Z,5.47
2022-11-28T17:58:27.038Z,5.43
2022-11-28T18:01:00.174Z,5.50
2022-11-28T18:03:28.058Z,5.58
2022-11-28T18:05:54.674Z,5.60
2022-11-28T18:08:22.251Z,5.61
2022-11-28T18:10:49.105Z,5.65
2022-11-28T18:13:17.418Z,5.70
2022-11-28T18:15:47.163Z,5.73
2022-11-28T18:18:13.926Z,5.74
2022-11-28T18:20:40.514Z,5.85
2022-11-28T18:23:07.101Z,5.85
2022-11-28T18:25:33.671Z,5.83
2022-11-28T18:28:00.245Z,5.79
2022-11-28T18:30:26.817Z,5.71
2022-11-28T18:32:53.388Z,5.71
2022-11-28T18:35:20.151Z,5.68
2022-11-28T18:37:46.744Z,5.62
2022-11-28T18:40:13.464Z,5.65
2022-11-28T18:42:40.197Z,5.56
2022-11-28T18:45:07.417Z,5.49
2022-11-28T18:47:35.881Z,5.36
2022-11-28T18:50:02.479Z,5.37
2022-11-28T18:52:29.018Z,5.37
2022-11-28T18:54:55.558Z,5.42
2022-11-28T18:57:22.077Z,5.41
2022-11-28T18:59:54.681Z,5.46
2022-11-28T19:02:22.028Z,5.48
2022-11-28T19:04:48.563Z,5.52
2022-11-28T19:07:15.123Z,5.43
2022-11-28T19:09:44.209Z,5.41
2022-11-28T19:12:11.567Z,5.45
2022-11-28T19:14:38.507Z,5.48
2022-11-28T19:17:05.187Z,5.58
2022-11-28T19:19:31.782Z,5.61
2022-11-28T19:21:58.266Z,5.66
2022-11-28T19:24:24.840Z,5.62
2022-11-28T19:26:51.402Z,5.61
2022-11-28T19:29:17.924Z,5.62
2022-11-28T19:31:45.044Z,5.67
2022-11-28T19:34:14.502Z,5.73
2022-11-28T19:36:43.498Z,5.72
2022-11-28T19:39:15.758Z,5.79
2022-11-28T19:41:42.638Z,5.85
2022-11-28T19:44:11.253Z,5.83
2022-11-28T19:46:38.115Z,5.82
2022-11-28T19:49:05.845Z,5.79
2022-11-28T19:51:32.515Z,5.79
2022-11-28T19:54:03.241Z,5.84
2022-11-28T19:56:31.416Z,5.86
2022-11-28T19:58:58.980Z,5.90
2022-11-28T20:01:25.993Z,5.91
2022-11-28T20:03:53.250Z,5.98
2022-11-28T20:06:31.165Z,5.95
2022-11-28T20:09:10.314Z,5.94
2022-11-28T20:11:38.178Z,6.01
2022-11-28T20:14:07.731Z,5.93
2022-11-28T20:16:36.361Z,5.90
2022-11-28T20:19:03.521Z,5.85
2022-11-28T20:21:30.890Z,5.86
2022-11-28T20:23:59.667Z,5.86
2022-11-28T20:26:27.117Z,5.84
2022-11-28T20:28:55.680Z,5.89
2022-11-28T20:31:25.035Z,5.96
2022-11-28T20:33:52.666Z,5.92
2022-11-28T20:36:21.866Z,5.86
2022-11-28T20:38:49.826Z,5.92
2022-11-28T20:41:18.396Z,5.94
2022-11-28T20:43:45.304Z,5.96
2022-11-28T20:46:16.103Z,5.96
2022-11-28T20:48:43.149Z,6.01
2022-11-28T20:51:15.246Z,6.00
2022-11-28T20:53:41.899Z,5.96
2022-11-28T20:56:17.418Z,6.04
2022-11-28T20:58:44.876Z,5.95
2022-11-28T21:01:23.027Z,5.86
2022-11-28T21:03:50.861Z,5.84
2022-11-28T21:06:17.556Z,5.86
2022-11-28T21:08:44.281Z,5.87
2022-11-28T21:11:30.531Z,5.85
2022-11-28T21:14:01.144Z,5.89
2022-11-28T21:16:29.028Z,5.88
2022-11-28T21:18:56.336Z,5.85
2022-11-28T21:21:28.271Z,5.87
2022-11-28T21:24:09.593Z,5.83
2022-11-28T21:26:41.079Z,5.83
2022-11-28T21:29:11.958Z,5.83
2022-11-28T21:31:42.199Z,5.88
2022-11-28T21:34:14.171Z,5.88
2022-11-28T21:36:41.770Z,5.19
2022-11-28T21:39:11.685Z,5.11
2022-11-28T21:41:38.342Z,4.93
2022-11-28T21:44:04.911Z,4.91
2022-11-28T21:46:31.424Z,4.62
2022-11-28T21:48:58.477Z,4.57
2022-11-28T21:51:26.066Z,4.54
2022-11-28T21:53:52.606Z,4.59
2022-11-28T21:56:20.367Z,4.54
2022-11-28T21:58:46.938Z,4.53
2022-11-28T22:01:14.161Z,4.43
2022-11-28T22:03:41.580Z,4.41
2022-11-28T22:06:15.450Z,4.38
2022-11-28T22:08:42.344Z,4.33
2022-11-28T22:11:11.240Z,4.36
2022-11-28T22:13:38.562Z,4.27
2022-11-28T22:16:08.638Z,4.24
2022-11-28T22:18:35.248Z,4.10
2022-11-28T22:21:06.512Z,4.02
2022-11-28T22:23:38.052Z,3.80
2022-11-28T22:26:06.493Z,3.83
2022-11-28T22:28:34.048Z,3.91
2022-11-28T22:31:16.595Z,3.98
2022-11-28T22:33:44.204Z,3.90
2022-11-28T22:36:14.113Z,3.85
2022-11-28T22:38:42.517Z,3.76
2022-11-28T22:41:16.765Z,3.72
2022-11-28T22:43:43.813Z,3.60
2022-11-28T22:46:10.997Z,3.58
2022-11-28T22:48:39.013Z,3.56
2022-11-28T22:51:14.429Z,3.45
2022-11-28T22:53:41.057Z,3.50
2022-11-28T22:56:09.774Z,3.55
2022-11-28T22:58:42.244Z,3.48
2022-11-28T23:01:11.494Z,3.43
2022-11-28T23:03:38.050Z,3.28
2022-11-28T23:06:10.473Z,3.27
2022-11-28T23:08:37.182Z,3.24
2022-11-28T23:11:09.208Z,3.21
2022-11-28T23:13:36.922Z,3.25
2022-11-28T23:16:15.579Z,3.34
2022-11-28T23:18:45.930Z,3.31
2022-11-28T23:21:13.290Z,3.24
2022-11-28T23:23:39.894Z,3.25
2022-11-28T23:26:09.376Z,3.12
2022-11-28T23:28:36.834Z,3.19
2022-11-28T23:31:10.997Z,3.12
2022-11-28T23:33:38.267Z,3.00
2022-11-28T23:36:31.147Z,3.04
2022-11-28T23:39:01.346Z,2.95
2022-11-28T23:41:29.742Z,2.93
2022-11-28T23:43:57.076Z,2.91
2022-11-28T23:46:24.553Z,2.87
2022-11-28T23:48:51.700Z,2.78
2022-11-28T23:51:20.292Z,2.71
2022-11-28T23:53:47.340Z,2.80
2022-11-28T23:56:26.203Z,2.78
2022-11-28T23:58:55.945Z,2.61
